createdAt,value
2022-11-04T00:02:08.243Z,99.90
2022-11-04T00:04:36.554Z,99.90
2022-11-04T00:07:26.295Z,99.90
2022-11-04T00:09:54.679Z,99.90
2022-11-04T00:12:27.797Z,99.90
2022-11-04T00:15:16.039Z,99.90
2022-11-04T00:17:43.341Z,99.90
2022-11-04T00:20:30.090Z,99.90
2022-11-04T00:23:25.322Z,99.90
2022-11-04T00:26:11.277Z,99.90
2022-11-04T00:28:45.926Z,99.90
2022-11-04T00:31:31.666Z,99.90
2022-11-04T00:34:00.439Z,99.90
2022-11-04T00:36:28.822Z,99.90
2022-11-04T00:38:58.916Z,99.90
2022-11-04T00:41:28.944Z,99.90
2022-11-04T00:43:58.692Z,99.90
2022-11-04T00:46:27.989Z,99.90
2022-11-04T00:48:56.571Z,99.90
2022-11-04T00:51:25.126Z,99.90
2022-11-04T00:53:53.950Z,99.90
2022-11-04T00:56:23.734Z,99.90
2022-11-04T00:58:52.342Z,99.90
2022-11-04T01:01:21.584Z,99.90
2022-11-04T01:03:52.322Z,99.90
2022-11-04T01:06:22.466Z,99.90
2022-11-04T01:08:55.928Z,99.90
2022-11-04T01:11:26.378Z,99.90
2022-11-04T01:13:55.001Z,99.90
2022-11-04T01:16:24.425Z,99.90
2022-11-04T01:18:53.492Z,99.90
2022-11-04T01:21:21.987Z,99.90
2022-11-04T01:23:50.262Z,99.90
2022-11-04T01:26:20.410Z,99.90
2022-11-04T01:28:50.460Z,99.90
2022-11-04T01:31:21.570Z,99.90
2022-11-04T01:33:50.518Z,99.90
2022-11-04T01:36:19.454Z,99.90
2022-11-04T01:38:47.850Z,99.90
2022-11-04T01:41:21.400Z,99.90
2022-11-04T01:43:52.873Z,99.90
2022-11-04T01:46:38.734Z,99.90
2022-11-04T01:49:20.485Z,99.90
2022-11-04T01:51:52.754Z,99.90
2022-11-04T01:54:21.781Z,99.90
2022-11-04T01:56:51.778Z,99.90
2022-11-04T01:59:28.631Z,99.90
2022-11-04T02:01:57.200Z,99.90
2022-11-04T02:04:30.193Z,99.90
2022-11-04T02:07:00.948Z,99.90
2022-11-04T02:09:30.993Z,99.90
2022-11-04T02:12:16.752Z,99.90
2022-11-04T02:14:49.360Z,99.90
2022-11-04T02:17:37.996Z,99.90
2022-11-04T02:20:20.052Z,99.90
2022-11-04T02:23:12.065Z,99.90
2022-11-04T02:26:10.792Z,99.90
2022-11-04T02:29:07.207Z,99.90
2022-11-04T02:31:42.344Z,99.90
2022-11-04T02:34:19.712Z,99.90
2022-11-04T02:36:59.308Z,99.90
2022-11-04T02:39:37.891Z,99.90
2022-11-04T02:42:14.215Z,99.90
2022-11-04T02:44:50.033Z,99.90
2022-11-04T02:47:22.403Z,99.90
2022-11-04T02:49:57.428Z,99.90
2022-11-04T02:52:33.967Z,99.90
2022-11-04T02:55:05.680Z,99.90
2022-11-04T02:57:37.426Z,99.90
2022-11-04T03:00:10.371Z,99.90
2022-11-04T03:02:43.029Z,99.90
2022-11-04T03:05:15.949Z,99.90
2022-11-04T03:07:48.420Z,99.90
2022-11-04T03:10:23.248Z,99.90
2022-11-04T03:12:55.951Z,99.90
2022-11-04T03:15:30.600Z,99.90
2022-11-04T03:18:05.156Z,99.90
2022-11-04T03:20:33.781Z,99.90
2022-11-04T03:23:02.599Z,99.90
2022-11-04T03:25:37.425Z,99.90
2022-11-04T03:28:13.909Z,99.90
2022-11-04T03:30:46.393Z,99.90
2022-11-04T03:33:21.664Z,99.90
2022-11-04T03:35:50.250Z,99.90
2022-11-04T03:38:18.768Z,99.90
2022-11-04T03:40:47.494Z,99.90
2022-11-04T03:43:20.604Z,99.90
2022-11-04T03:45:51.554Z,99.90
2022-11-04T03:48:20.248Z,99.90
2022-11-04T03:50:51.021Z,99.90
2022-11-04T03:53:22.986Z,99.90
2022-11-04T03:56:10.131Z,99.90
2022-11-04T03:58:45.999Z,99.90
2022-11-04T04:01:26.422Z,99.90
2022-11-04T04:04:00.460Z,99.90
2022-11-04T04:06:32.541Z,99.90
2022-11-04T04:09:09.575Z,99.90
2022-11-04T04:11:43.981Z,99.90
2022-11-04T04:14:39.201Z,99.90
2022-11-04T04:17:15.600Z,99.90
2022-11-04T04:19:47.379Z,99.90
2022-11-04T04:22:19.382Z,99.90
2022-11-04T04:25:09.262Z,99.90
2022-11-04T04:27:39.625Z,99.90
2022-11-04T04:30:10.254Z,99.90
2022-11-04T04:32:43.248Z,99.90
2022-11-04T04:35:29.701Z,99.90
2022-11-04T04:38:16.658Z,99.90
2022-11-04T04:41:05.822Z,99.90
2022-11-04T04:43:51.439Z,99.90
2022-11-04T04:46:20.628Z,99.90
2022-11-04T04:48:50.346Z,99.90
2022-11-04T04:51:20.749Z,99.90
2022-11-04T04:53:49.161Z,99.90
2022-11-04T04:56:17.443Z,99.90
2022-11-04T04:58:45.934Z,99.90
2022-11-04T05:01:14.764Z,99.90
2022-11-04T05:03:45.334Z,99.90
2022-11-04T05:06:15.187Z,99.90
2022-11-04T05:08:43.759Z,99.90
2022-11-04T05:11:12.051Z,99.90
2022-11-04T05:13:41.042Z,99.90
2022-11-04T05:16:11.942Z,99.90
2022-11-04T05:18:40.392Z,99.90
2022-11-04T05:21:12.093Z,99.90
2022-11-04T05:23:41.874Z,99.90
2022-11-04T05:26:10.275Z,99.90
2022-11-04T05:28:38.689Z,99.90
2022-11-04T05:31:07.948Z,99.90
2022-11-04T05:33:36.250Z,99.90
2022-11-04T05:36:09.021Z,99.90
2022-11-04T05:38:37.695Z,99.90
2022-11-04T05:41:09.623Z,99.90
2022-11-04T05:43:38.654Z,99.90
2022-11-04T05:46:07.164Z,99.90
2022-11-04T05:48:40.722Z,99.90
2022-11-04T05:51:10.341Z,99.90
2022-11-04T05:53:38.599Z,99.90
2022-11-04T05:56:09.324Z,99.90
2022-11-04T05:58:38.553Z,99.90
2022-11-04T06:01:26.635Z,99.90
2022-11-04T06:03:57.583Z,99.90
2022-11-04T06:06:27.736Z,99.90
2022-11-04T06:08:56.833Z,99.90
2022-11-04T06:11:28.189Z,99.90
2022-11-04T06:13:57.448Z,99.90
2022-11-04T06:16:26.553Z,99.90
2022-11-04T06:18:59.887Z,99.90
2022-11-04T06:21:34.020Z,99.90
2022-11-04T06:24:02.528Z,99.90
2022-11-04T06:26:32.582Z,99.90
2022-11-04T06:29:01.244Z,99.90
2022-11-04T06:31:30.928Z,99.90
2022-11-04T06:33:59.196Z,99.90
2022-11-04T06:36:31.025Z,99.90
2022-11-04T06:39:04.459Z,99.90
2022-11-04T06:41:34.849Z,99.90
2022-11-04T06:44:03.171Z,99.90
2022-11-04T06:46:35.803Z,99.90
2022-11-04T06:49:05.275Z,99.90
2022-11-04T06:51:34.260Z,99.90
2022-11-04T06:54:02.801Z,99.90
2022-11-04T06:56:31.456Z,99.90
2022-11-04T06:59:01.078Z,99.90
2022-11-04T07:01:31.707Z,99.90
2022-11-04T07:04:01.844Z,99.90
2022-11-04T07:06:30.674Z,99.90
2022-11-04T07:09:01.275Z,99.90
2022-11-04T07:11:31.615Z,99.90
2022-11-04T07:14:01.766Z,99.90
2022-11-04T07:16:30.108Z,99.90
2022-11-04T07:18:58.555Z,99.90
2022-11-04T07:21:27.425Z,99.90
2022-11-04T07:23:55.812Z,99.90
2022-11-04T07:26:24.497Z,99.90
2022-11-04T07:28:52.882Z,99.90
2022-11-04T07:31:23.452Z,99.90
2022-11-04T07:33:51.935Z,99.90
2022-11-04T07:36:22.089Z,99.90
2022-11-04T07:38:50.646Z,99.90
2022-11-04T07:41:20.095Z,99.90
2022-11-04T07:43:52.037Z,99.90
2022-11-04T07:46:22.971Z,99.90
2022-11-04T07:48:51.549Z,99.90
2022-11-04T07:51:23.413Z,99.90
2022-11-04T07:53:51.958Z,99.90
2022-11-04T07:56:20.660Z,99.90
2022-11-04T07:58:50.461Z,99.90
2022-11-04T08:01:23.435Z,99.90
2022-11-04T08:03:53.608Z,99.90
2022-11-04T08:06:22.963Z,99.90
2022-11-04T08:08:54.291Z,99.90
2022-11-04T08:11:25.568Z,99.90
2022-11-04T08:13:54.096Z,99.90
2022-11-04T08:16:23.946Z,99.90
2022-11-04T08:18:53.901Z,99.90
2022-11-04T08:21:22.697Z,99.90
2022-11-04T08:23:51.725Z,99.90
2022-11-04T08:26:23.483Z,99.90
2022-11-04T08:28:52.618Z,99.90
2022-11-04T08:31:24.512Z,99.90
2022-11-04T08:33:54.957Z,99.90
2022-11-04T08:36:25.333Z,99.90
2022-11-04T08:38:53.995Z,99.90
2022-11-04T08:41:24.556Z,99.90
2022-11-04T08:43:53.023Z,99.90
2022-11-04T08:46:21.684Z,99.90
2022-11-04T08:48:50.651Z,99.90
2022-11-04T08:51:23.051Z,99.90
2022-11-04T08:53:51.616Z,99.90
2022-11-04T08:56:22.130Z,99.90
2022-11-04T08:58:51.888Z,99.90
2022-11-04T09:01:21.991Z,99.90
2022-11-04T09:03:51.635Z,99.90
2022-11-04T09:06:23.522Z,99.90
2022-11-04T09:08:52.331Z,99.90
2022-11-04T09:11:20.585Z,99.90
2022-11-04T09:13:49.229Z,99.90
2022-11-04T09:16:17.712Z,99.90
2022-11-04T09:18:46.197Z,99.90
2022-11-04T09:21:14.572Z,99.90
2022-11-04T09:23:44.297Z,99.90
2022-11-04T09:26:14.990Z,99.90
2022-11-04T09:28:43.728Z,99.90
2022-11-04T09:31:13.704Z,99.90
2022-11-04T09:33:42.651Z,99.90
2022-11-04T09:36:12.705Z,99.90
2022-11-04T09:38:43.751Z,99.90
2022-11-04T09:41:44.057Z,99.90
2022-11-04T09:44:23.153Z,99.90
2022-11-04T09:46:53.961Z,99.90
2022-11-04T09:49:23.237Z,99.90
2022-11-04T09:51:55.445Z,99.90
2022-11-04T09:54:28.102Z,99.90
2022-11-04T09:57:00.557Z,99.90
2022-11-04T09:59:32.126Z,99.90
2022-11-04T10:02:36.101Z,99.90
2022-11-04T10:05:18.001Z,99.90
2022-11-04T10:08:09.218Z,99.90
2022-11-04T10:10:45.990Z,99.90
2022-11-04T10:13:26.561Z,99.90
2022-11-04T10:16:15.226Z,99.90
2022-11-04T10:19:12.982Z,99.90
2022-11-04T10:21:50.474Z,99.90
2022-11-04T10:24:21.809Z,99.90
2022-11-04T10:27:00.750Z,99.90
2022-11-04T10:29:33.972Z,99.90
2022-11-04T10:32:08.068Z,99.90
2022-11-04T10:34:41.674Z,99.90
2022-11-04T10:37:12.195Z,99.90
2022-11-04T10:39:44.241Z,99.90
2022-11-04T10:42:18.102Z,99.90
2022-11-04T10:44:47.753Z,99.90
2022-11-04T10:47:31.470Z,99.90
2022-11-04T10:50:29.038Z,99.90
2022-11-04T10:53:12.175Z,99.90
2022-11-04T10:55:49.022Z,99.90
2022-11-04T10:58:24.299Z,99.90
2022-11-04T11:00:53.591Z,99.90
2022-11-04T11:03:29.543Z,99.90
2022-11-04T11:06:16.950Z,99.90
2022-11-04T11:08:45.807Z,99.90
2022-11-04T11:11:15.367Z,99.90
2022-11-04T11:13:46.793Z,99.90
2022-11-04T11:16:20.233Z,99.90
2022-11-04T11:19:14.081Z,99.90
2022-11-04T11:21:45.509Z,99.90
2022-11-04T11:24:21.340Z,99.90
2022-11-04T11:26:53.291Z,99.90
2022-11-04T11:29:26.586Z,99.90
2022-11-04T11:31:55.992Z,99.90
2022-11-04T11:34:27.533Z,99.90
2022-11-04T11:36:57.665Z,99.90
2022-11-04T11:39:28.621Z,99.90
2022-11-04T11:42:00.923Z,99.90
2022-11-04T11:44:34.256Z,99.90
2022-11-04T11:47:04.893Z,99.90
2022-11-04T11:49:35.979Z,99.90
2022-11-04T11:52:33.207Z,99.90
2022-11-04T11:55:08.696Z,99.90
2022-11-04T12:00:56.665Z,99.90
2022-11-04T12:09:34.805Z,99.90
2022-11-04T12:12:19.760Z,99.90
2022-11-04T12:15:01.103Z,99.90
2022-11-04T12:17:43.748Z,99.90
2022-11-04T12:20:38.768Z,99.90
2022-11-04T12:23:17.696Z,99.90
2022-11-04T12:25:53.856Z,99.90
2022-11-04T12:28:32.628Z,99.90
2022-11-04T12:31:16.393Z,99.90
2022-11-04T12:33:54.893Z,99.90
2022-11-04T12:36:42.631Z,99.90
2022-11-04T12:39:33.701Z,99.90
2022-11-04T12:42:22.995Z,99.90
2022-11-04T12:45:03.737Z,99.90
2022-11-04T12:47:37.912Z,99.90
2022-11-04T12:50:33.250Z,99.90
2022-11-04T12:53:17.859Z,99.90
2022-11-04T12:55:57.435Z,99.90
2022-11-04T12:58:41.080Z,99.90
2022-11-04T13:01:15.658Z,99.90
2022-11-04T13:03:53.494Z,99.90
2022-11-04T13:06:28.161Z,99.90
2022-11-04T13:09:03.232Z,99.90
2022-11-04T13:11:37.941Z,99.90
2022-11-04T13:14:10.778Z,99.90
2022-11-04T13:16:42.949Z,99.90
2022-11-04T13:19:31.667Z,99.90
2022-11-04T13:22:07.034Z,99.90
2022-11-04T13:24:39.186Z,99.90
2022-11-04T13:27:19.396Z,99.90
2022-11-04T13:29:50.809Z,99.90
2022-11-04T13:32:27.146Z,99.90
2022-11-04T13:35:01.137Z,99.90
2022-11-04T13:37:35.133Z,99.40
2022-11-04T13:40:08.057Z,98.50
2022-11-04T13:42:55.428Z,98.70
2022-11-04T13:45:23.810Z,93.20
2022-11-04T13:47:56.297Z,95.10
2022-11-04T13:50:36.747Z,91.80
2022-11-04T13:53:09.471Z,90.20
2022-11-04T13:55:50.000Z,91.70
2022-11-04T13:58:26.092Z,90.30
2022-11-04T14:01:18.870Z,88.70
2022-11-04T14:03:56.228Z,85.70
2022-11-04T14:06:51.444Z,84.80
2022-11-04T14:09:59.682Z,84.20
2022-11-04T14:12:31.603Z,82.80
2022-11-04T14:15:16.510Z,84.90
2022-11-04T14:18:01.622Z,87.30
2022-11-04T14:20:37.103Z,90.20
2022-11-04T14:23:08.952Z,91.10
2022-11-04T14:25:41.366Z,92.20
2022-11-04T14:28:27.055Z,93.10
2022-11-04T14:30:57.367Z,94.50
2022-11-04T14:33:51.555Z,95.30
2022-11-04T14:36:36.459Z,96.70
2022-11-04T14:39:22.398Z,97.90
2022-11-04T14:42:00.676Z,99.20
2022-11-04T14:44:35.409Z,99.90
2022-11-04T14:47:15.947Z,99.90
2022-11-04T14:49:46.927Z,99.90
2022-11-04T14:52:22.995Z,99.90
2022-11-04T14:54:57.403Z,99.90
2022-11-04T14:57:30.224Z,99.90
2022-11-04T14:59:58.578Z,99.90
2022-11-04T15:02:31.534Z,99.90
2022-11-04T15:05:01.611Z,99.90
2022-11-04T15:07:38.074Z,99.90
2022-11-04T15:10:21.516Z,99.90
2022-11-04T15:12:51.686Z,99.90
2022-11-04T15:15:36.060Z,99.90
2022-11-04T15:18:08.901Z,99.90
2022-11-04T15:20:42.597Z,99.90
2022-11-04T15:23:17.661Z,99.90
2022-11-04T15:25:48.061Z,99.90
2022-11-04T15:28:28.172Z,99.90
2022-11-04T15:31:17.604Z,99.90
2022-11-04T15:33:49.084Z,99.90
2022-11-04T15:36:21.173Z,99.90
2022-11-04T15:38:55.110Z,99.90
2022-11-04T15:41:42.751Z,99.90
2022-11-04T15:44:22.601Z,99.90
2022-11-04T15:46:53.040Z,99.90
2022-11-04T15:49:25.461Z,99.90
2022-11-04T15:51:57.098Z,99.90
2022-11-04T15:54:29.642Z,99.90
2022-11-04T15:57:01.206Z,99.90
2022-11-04T15:59:33.528Z,99.90
2022-11-04T16:02:04.806Z,99.90
2022-11-04T16:04:33.774Z,99.90
2022-11-04T16:07:11.279Z,99.90
2022-11-04T16:09:50.588Z,99.90
2022-11-04T16:12:28.063Z,99.90
2022-11-04T16:14:59.688Z,99.90
2022-11-04T16:17:29.427Z,99.90
2022-11-04T16:19:59.958Z,99.90
2022-11-04T16:22:31.233Z,99.90
2022-11-04T16:25:01.673Z,99.90
2022-11-04T16:27:33.274Z,99.90
2022-11-04T16:30:10.833Z,99.90
2022-11-04T16:32:45.573Z,99.90
2022-11-04T16:35:20.331Z,99.90
2022-11-04T16:37:48.972Z,99.90
2022-11-04T16:40:17.864Z,99.90
2022-11-04T16:42:47.791Z,99.90
2022-11-04T16:45:26.113Z,99.90
2022-11-04T16:47:55.061Z,99.90
2022-11-04T16:50:24.488Z,99.90
2022-11-04T16:52:53.900Z,99.90
2022-11-04T16:55:23.978Z,99.90
2022-11-04T16:57:58.968Z,99.90
2022-11-04T17:00:33.061Z,99.90
2022-11-04T17:03:01.955Z,99.90
2022-11-04T17:05:30.380Z,99.90
2022-11-04T17:08:04.764Z,99.90
2022-11-04T17:10:36.318Z,99.90
2022-11-04T17:13:04.966Z,99.90
2022-11-04T17:15:35.163Z,99.90
2022-11-04T17:18:03.912Z,99.90
2022-11-04T17:20:33.184Z,99.90
2022-11-04T17:23:02.289Z,99.90
2022-11-04T17:25:31.560Z,99.90
2022-11-04T17:28:00.592Z,99.90
2022-11-04T17:30:29.087Z,99.90
2022-11-04T17:32:58.935Z,99.90
2022-11-04T17:35:27.684Z,99.90
2022-11-04T17:37:56.360Z,99.90
2022-11-04T17:40:26.081Z,99.90
2022-11-04T17:43:12.533Z,99.90
2022-11-04T17:45:42.398Z,99.90
2022-11-04T17:48:14.979Z,99.90
2022-11-04T17:50:43.976Z,99.90
2022-11-04T17:53:12.694Z,99.90
2022-11-04T17:55:44.210Z,99.90
2022-11-04T17:58:12.550Z,99.90
2022-11-04T18:00:40.890Z,99.90
2022-11-04T18:03:12.489Z,99.90
2022-11-04T18:05:42.562Z,99.90
2022-11-04T18:08:11.565Z,99.90
2022-11-04T18:10:40.280Z,99.90
2022-11-04T18:13:08.158Z,99.90
2022-11-04T18:15:36.716Z,99.90
2022-11-04T18:18:05.304Z,99.90
2022-11-04T18:20:34.306Z,99.90
2022-11-04T18:23:03.935Z,99.90
2022-11-04T18:25:32.446Z,99.90
2022-11-04T18:28:02.263Z,99.90
2022-11-04T18:30:30.723Z,99.90
2022-11-04T18:32:59.188Z,99.90
2022-11-04T18:35:27.526Z,99.90
2022-11-04T18:37:56.107Z,99.90
2022-11-04T18:40:27.000Z,99.90
2022-11-04T18:42:55.633Z,99.90
2022-11-04T18:45:24.829Z,99.90
2022-11-04T18:47:53.100Z,99.90
2022-11-04T18:50:21.652Z,99.90
2022-11-04T18:52:54.312Z,99.90
2022-11-04T18:55:23.841Z,99.90
2022-11-04T18:57:56.637Z,99.90
2022-11-04T19:00:25.058Z,99.90
2022-11-04T19:02:53.514Z,99.90
2022-11-04T19:05:22.474Z,99.90
2022-11-04T19:07:50.982Z,99.90
2022-11-04T19:10:19.498Z,99.90
2022-11-04T19:13:05.739Z,99.90
2022-11-04T19:15:36.481Z,99.90
2022-11-04T19:18:05.062Z,99.90
2022-11-04T19:20:33.477Z,99.90
2022-11-04T19:23:01.768Z,99.90
2022-11-04T19:25:30.820Z,99.90
2022-11-04T19:28:26.442Z,99.90
2022-11-04T19:30:58.525Z,99.90
2022-11-04T19:33:26.976Z,99.90
2022-11-04T19:35:56.000Z,99.90
2022-11-04T19:38:24.625Z,99.90
2022-11-04T19:40:55.080Z,99.90
2022-11-04T19:43:23.411Z,99.90
2022-11-04T19:45:53.518Z,99.90
2022-11-04T19:48:22.211Z,99.90
2022-11-04T19:50:50.860Z,99.90
2022-11-04T19:53:19.544Z,99.90
2022-11-04T19:55:52.138Z,99.90
2022-11-04T19:58:20.610Z,99.90
2022-11-04T20:00:49.846Z,99.90
2022-11-04T20:03:19.767Z,99.90
2022-11-04T20:05:48.376Z,99.90
2022-11-04T20:08:16.661Z,99.90
2022-11-04T20:10:44.997Z,99.90
2022-11-04T20:13:33.852Z,99.90
2022-11-04T20:16:03.080Z,99.90
2022-11-04T20:18:33.019Z,99.90
2022-11-04T20:21:04.271Z,99.90
2022-11-04T20:23:32.954Z,99.90
2022-11-04T20:26:08.093Z,99.90
2022-11-04T20:28:36.811Z,99.90
2022-11-04T20:31:10.971Z,99.90
2022-11-04T20:33:41.876Z,99.90
2022-11-04T20:36:10.934Z,99.90
2022-11-04T20:38:39.525Z,99.90
2022-11-04T20:41:10.869Z,99.90
2022-11-04T20:43:41.026Z,99.90
2022-11-04T20:46:11.527Z,99.90
2022-11-04T20:48:43.158Z,99.90
2022-11-04T20:51:14.036Z,99.90
2022-11-04T20:53:43.187Z,99.90
2022-11-04T20:56:14.382Z,99.90
2022-11-04T20:58:44.671Z,99.90
2022-11-04T21:01:15.437Z,99.90
2022-11-04T21:03:45.924Z,99.90
2022-11-04T21:06:14.556Z,99.90
2022-11-04T21:08:42.990Z,99.90
2022-11-04T21:11:11.310Z,99.90
2022-11-04T21:13:40.306Z,99.90
2022-11-04T21:16:09.091Z,99.90
2022-11-04T21:18:37.525Z,99.90
2022-11-04T21:21:09.244Z,99.90
2022-11-04T21:23:37.639Z,99.90
2022-11-04T21:26:11.027Z,99.90
2022-11-04T21:28:39.535Z,99.90
2022-11-04T21:31:11.053Z,99.90
2022-11-04T21:33:39.826Z,99.90
2022-11-04T21:36:13.253Z,99.90
2022-11-04T21:38:42.219Z,99.90
2022-11-04T21:41:12.968Z,99.90
2022-11-04T21:43:41.904Z,99.90
2022-11-04T21:46:13.296Z,99.90
2022-11-04T21:48:42.545Z,99.90
2022-11-04T21:51:13.676Z,99.90
2022-11-04T21:53:45.000Z,99.90
2022-11-04T21:56:15.901Z,99.90
2022-11-04T21:58:44.845Z,99.90
2022-11-04T22:01:15.449Z,99.90
2022-11-04T22:03:44.039Z,99.90
2022-11-04T22:06:14.537Z,99.90
2022-11-04T22:08:45.134Z,99.90
2022-11-04T22:11:15.846Z,99.90
2022-11-04T22:13:45.382Z,99.90
2022-11-04T22:16:15.008Z,99.90
2022-11-04T22:18:43.456Z,99.90
2022-11-04T22:21:14.813Z,99.90
2022-11-04T22:23:44.077Z,99.90
2022-11-04T22:26:14.642Z,99.90
2022-11-04T22:28:44.030Z,99.90
2022-11-04T22:31:14.859Z,99.90
2022-11-04T22:33:44.519Z,99.90
2022-11-04T22:36:14.794Z,99.90
2022-11-04T22:38:43.938Z,99.90
2022-11-04T22:41:15.292Z,99.90
2022-11-04T22:43:43.626Z,99.90
2022-11-04T22:46:14.527Z,99.90
2022-11-04T22:48:43.056Z,99.90
2022-11-04T22:51:11.400Z,99.90
2022-11-04T22:53:41.529Z,99.90
2022-11-04T22:56:12.861Z,99.90
2022-11-04T22:58:41.380Z,99.90
2022-11-04T23:01:12.075Z,99.90
2022-11-04T23:03:41.184Z,99.90
2022-11-04T23:06:11.086Z,99.90
2022-11-04T23:08:42.360Z,99.90
2022-11-04T23:11:34.339Z,99.90
2022-11-04T23:14:21.047Z,99.90
2022-11-04T23:17:09.364Z,99.90
2022-11-04T23:19:38.064Z,99.90
2022-11-04T23:22:24.158Z,99.90
2022-11-04T23:25:10.430Z,99.90
2022-11-04T23:27:58.824Z,99.90
2022-11-04T23:30:29.064Z,99.90
2022-11-04T23:32:59.058Z,99.90
2022-11-04T23:35:47.050Z,99.90
2022-11-04T23:38:15.603Z,99.90
2022-11-04T23:41:05.945Z,99.90
2022-11-04T23:43:33.285Z,99.90
2022-11-04T23:46:19.242Z,99.90
2022-11-04T23:49:05.192Z,99.90
2022-11-04T23:51:50.864Z,99.90
2022-11-04T23:54:36.726Z,99.90
2022-11-04T23:57:30.046Z,99.90
